BLKT80 YPDN-YPTN
Flight info
| Callsign | BLKT80 |
|---|---|
| Flight time | N/A |
| Altitude | 21000 |
| Route | DAR DCT TN |
| Aircraft | P8/M-SADE2E3FGHIRWZ/LB1 |
Departure
| Time | 2026-05-09 09:28 |
|---|---|
| Airport | Darwin International Airport / RAAF Darwin (YPDN) |
Arrival
| Time | N/A |
|---|---|
| Airport | Tindal Airport (YPTN) |
| Time | Latitude | Longitude | Altitude | Speed | Heading |
|---|---|---|---|---|---|
| 2026-05-09 08:49 | -12.41726 | 130.86718 | 98 ft | 0 kts | 360° |
| 2026-05-09 09:20 | -12.41722 | 130.86718 | 98 ft | 2 kts | 360° |
| 2026-05-09 09:20 | -12.41701 | 130.86722 | 98 ft | 3 kts | 14° |
| 2026-05-09 09:20 | -12.41682 | 130.86735 | 98 ft | 3 kts | 56° |
| 2026-05-09 09:20 | -12.41679 | 130.86760 | 98 ft | 4 kts | 91° |
| 2026-05-09 09:21 | -12.41680 | 130.86784 | 98 ft | 3 kts | 91° |
| 2026-05-09 09:21 | -12.41680 | 130.86809 | 98 ft | 3 kts | 91° |
| 2026-05-09 09:21 | -12.41680 | 130.86847 | 98 ft | 9 kts | 90° |
| 2026-05-09 09:21 | -12.41680 | 130.86914 | 98 ft | 9 kts | 82° |
| 2026-05-09 09:22 | -12.41631 | 130.86947 | 99 ft | 9 kts | 1° |
| 2026-05-09 09:22 | -12.41568 | 130.86944 | 97 ft | 9 kts | 357° |
| 2026-05-09 09:22 | -12.41507 | 130.86941 | 99 ft | 9 kts | 357° |
| 2026-05-09 09:22 | -12.41448 | 130.86940 | 99 ft | 8 kts | 0° |
| 2026-05-09 09:23 | -12.41390 | 130.86940 | 99 ft | 8 kts | 0° |
| 2026-05-09 09:23 | -12.41349 | 130.86917 | 99 ft | 8 kts | 262° |
| 2026-05-09 09:23 | -12.41337 | 130.86862 | 98 ft | 8 kts | 289° |
| 2026-05-09 09:23 | -12.41319 | 130.86810 | 98 ft | 8 kts | 289° |
| 2026-05-09 09:24 | -12.41302 | 130.86760 | 98 ft | 7 kts | 289° |
| 2026-05-09 09:24 | -12.41285 | 130.86710 | 97 ft | 7 kts | 289° |
| 2026-05-09 09:24 | -12.41270 | 130.86664 | 98 ft | 7 kts | 289° |
| 2026-05-09 09:24 | -12.41252 | 130.86612 | 98 ft | 8 kts | 289° |
| 2026-05-09 09:25 | -12.41233 | 130.86557 | 99 ft | 8 kts | 289° |
| 2026-05-09 09:25 | -12.41204 | 130.86510 | 99 ft | 8 kts | 315° |
| 2026-05-09 09:25 | -12.41149 | 130.86479 | 99 ft | 10 kts | 347° |
| 2026-05-09 09:25 | -12.41079 | 130.86488 | 100 ft | 10 kts | 19° |
| 2026-05-09 09:26 | -12.41014 | 130.86511 | 103 ft | 10 kts | 19° |
| 2026-05-09 09:26 | -12.40954 | 130.86541 | 104 ft | 10 kts | 49° |
| 2026-05-09 09:26 | -12.40956 | 130.86583 | 102 ft | 0 kts | 109° |
| 2026-05-09 09:27 | -12.40988 | 130.86678 | 102 ft | 44 kts | 109° |
| 2026-05-09 09:27 | -12.41163 | 130.87197 | 99 ft | 108 kts | 109° |
| 2026-05-09 09:27 | -12.41471 | 130.88106 | 97 ft | 160 kts | 108° |
| 2026-05-09 09:28 | -12.41875 | 130.89316 | 308 ft | 188 kts | 109° |
| 2026-05-09 09:28 | -12.42310 | 130.90536 | 1191 ft | 180 kts | 111° |
| 2026-05-09 09:28 | -12.42716 | 130.91754 | 1826 ft | 186 kts | 108° |
| 2026-05-09 09:28 | -12.43104 | 130.93112 | 2078 ft | 209 kts | 107° |
| 2026-05-09 09:29 | -12.43531 | 130.94609 | 2274 ft | 228 kts | 108° |
| 2026-05-09 09:29 | -12.43991 | 130.96188 | 2679 ft | 235 kts | 108° |
| 2026-05-09 09:29 | -12.44463 | 130.97777 | 3191 ft | 238 kts | 108° |
| 2026-05-09 09:29 | -12.44967 | 130.99457 | 3461 ft | 255 kts | 108° |
| 2026-05-09 09:30 | -12.45496 | 131.01213 | 4043 ft | 260 kts | 107° |
| 2026-05-09 09:30 | -12.46071 | 131.02955 | 4858 ft | 258 kts | 116° |
| 2026-05-09 09:30 | -12.47224 | 131.04365 | 5516 ft | 266 kts | 143° |
| 2026-05-09 09:30 | -12.48954 | 131.05073 | 6148 ft | 275 kts | 171° |
| 2026-05-09 09:31 | -12.50889 | 131.05092 | 6779 ft | 281 kts | 181° |
| 2026-05-09 09:31 | -12.52857 | 131.04966 | 7387 ft | 285 kts | 182° |
| 2026-05-09 09:31 | -12.54847 | 131.04832 | 8019 ft | 288 kts | 182° |
| 2026-05-09 09:32 | -12.58902 | 131.04589 | 9235 ft | 296 kts | 182° |
| 2026-05-09 09:32 | -12.60981 | 131.04493 | 9841 ft | 300 kts | 182° |
| 2026-05-09 09:32 | -12.63075 | 131.04415 | 10356 ft | 306 kts | 182° |
| 2026-05-09 09:32 | -12.65279 | 131.04340 | 10487 ft | 327 kts | 182° |
| 2026-05-09 09:33 | -12.67595 | 131.04264 | 10621 ft | 345 kts | 182° |
| 2026-05-09 09:33 | -12.70058 | 131.04187 | 10764 ft | 362 kts | 182° |
| 2026-05-09 09:33 | -12.72614 | 131.04108 | 11068 ft | 372 kts | 182° |
| 2026-05-09 09:33 | -12.75219 | 131.04030 | 11553 ft | 376 kts | 182° |
| 2026-05-09 09:34 | -12.77844 | 131.03958 | 12046 ft | 380 kts | 182° |
| 2026-05-09 09:34 | -12.80508 | 131.03892 | 12517 ft | 384 kts | 182° |
| 2026-05-09 09:34 | -12.83190 | 131.03831 | 13013 ft | 388 kts | 182° |
| 2026-05-09 09:36 | -13.02543 | 131.03568 | 16278 ft | 406 kts | 182° |
| 2026-05-09 09:36 | -13.05377 | 131.03561 | 16731 ft | 408 kts | 182° |
| 2026-05-09 09:36 | -13.08227 | 131.03563 | 17174 ft | 411 kts | 182° |
| 2026-05-09 09:37 | -13.11093 | 131.03574 | 17610 ft | 413 kts | 182° |
| 2026-05-09 09:37 | -13.13943 | 131.03592 | 18046 ft | 415 kts | 182° |
| 2026-05-09 09:37 | -13.16841 | 131.03617 | 18439 ft | 418 kts | 182° |
| 2026-05-09 09:37 | -13.19758 | 131.03650 | 18780 ft | 421 kts | 182° |
| 2026-05-09 09:38 | -13.22695 | 131.03689 | 19105 ft | 424 kts | 182° |
| 2026-05-09 09:38 | -13.25657 | 131.03735 | 19437 ft | 427 kts | 182° |
| 2026-05-09 09:38 | -13.28635 | 131.03787 | 19769 ft | 429 kts | 182° |
| 2026-05-09 09:38 | -13.31635 | 131.03846 | 20148 ft | 430 kts | 182° |
| 2026-05-09 09:39 | -13.34620 | 131.03918 | 20676 ft | 427 kts | 182° |
| 2026-05-09 09:39 | -13.37605 | 131.04000 | 20919 ft | 432 kts | 182° |
| 2026-05-09 09:39 | -13.40635 | 131.04088 | 20929 ft | 439 kts | 182° |
| 2026-05-09 09:39 | -13.43716 | 131.04180 | 20943 ft | 446 kts | 182° |
| 2026-05-09 09:40 | -13.46810 | 131.04275 | 20940 ft | 444 kts | 182° |
| 2026-05-09 09:40 | -13.49851 | 131.04371 | 20931 ft | 442 kts | 182° |
| 2026-05-09 09:40 | -13.52923 | 131.04470 | 20934 ft | 440 kts | 182° |
| 2026-05-09 09:40 | -13.55982 | 131.04570 | 20935 ft | 440 kts | 182° |
| 2026-05-09 09:41 | -13.59038 | 131.04670 | 20943 ft | 439 kts | 182° |
| 2026-05-09 09:41 | -13.62097 | 131.04773 | 20941 ft | 440 kts | 182° |
| 2026-05-09 09:41 | -13.65157 | 131.04877 | 20943 ft | 440 kts | 182° |
| 2026-05-09 09:41 | -13.68225 | 131.04981 | 20947 ft | 441 kts | 182° |
| 2026-05-09 09:42 | -13.71294 | 131.05086 | 20944 ft | 440 kts | 182° |
| 2026-05-09 09:42 | -13.74300 | 131.05193 | 20923 ft | 426 kts | 182° |
| 2026-05-09 09:42 | -13.77212 | 131.05305 | 20923 ft | 411 kts | 182° |
| 2026-05-09 09:42 | -13.80021 | 131.05422 | 20925 ft | 398 kts | 181° |
| 2026-05-09 09:43 | -13.82741 | 131.05882 | 20938 ft | 400 kts | 166° |
| 2026-05-09 09:43 | -13.85308 | 131.07036 | 20882 ft | 402 kts | 153° |
| 2026-05-09 09:43 | -13.87585 | 131.08607 | 20790 ft | 389 kts | 147° |
| 2026-05-09 09:43 | -13.89737 | 131.10187 | 20546 ft | 378 kts | 148° |
| 2026-05-09 09:44 | -13.91878 | 131.11723 | 20117 ft | 373 kts | 148° |
| 2026-05-09 09:44 | -13.94007 | 131.13232 | 19647 ft | 370 kts | 148° |
| 2026-05-09 09:44 | -13.96114 | 131.14719 | 19192 ft | 367 kts | 148° |
| 2026-05-09 09:44 | -13.98215 | 131.16198 | 18755 ft | 364 kts | 148° |
| 2026-05-09 09:45 | -14.00296 | 131.17664 | 18335 ft | 360 kts | 147° |
| 2026-05-09 09:45 | -14.02353 | 131.19113 | 17876 ft | 356 kts | 147° |
| 2026-05-09 09:45 | -14.03702 | 131.20064 | 17546 ft | 354 kts | 147° |
| 2026-05-09 09:45 | -14.06407 | 131.21971 | 16889 ft | 351 kts | 147° |
| 2026-05-09 09:46 | -14.07739 | 131.22911 | 16580 ft | 349 kts | 147° |
| 2026-05-09 09:46 | -14.09733 | 131.24318 | 16097 ft | 347 kts | 147° |
| 2026-05-09 09:46 | -14.12373 | 131.26181 | 15576 ft | 347 kts | 147° |
| 2026-05-09 09:46 | -14.13709 | 131.27125 | 15419 ft | 342 kts | 147° |
| 2026-05-09 09:47 | -14.16290 | 131.28949 | 14947 ft | 338 kts | 147° |
| 2026-05-09 09:47 | -14.17602 | 131.29875 | 14682 ft | 338 kts | 147° |
| 2026-05-09 09:47 | -14.19535 | 131.31241 | 14306 ft | 336 kts | 147° |
| 2026-05-09 09:47 | -14.22084 | 131.33042 | 13852 ft | 333 kts | 146° |
| 2026-05-09 09:48 | -14.23373 | 131.33954 | 13602 ft | 332 kts | 146° |
| 2026-05-09 09:48 | -14.25275 | 131.35299 | 13234 ft | 329 kts | 146° |
| 2026-05-09 09:48 | -14.27131 | 131.36611 | 12896 ft | 326 kts | 146° |
| 2026-05-09 09:48 | -14.28996 | 131.37931 | 12555 ft | 323 kts | 146° |
| 2026-05-09 09:49 | -14.30845 | 131.39239 | 12225 ft | 320 kts | 146° |
| 2026-05-09 09:49 | -14.32673 | 131.40533 | 11899 ft | 318 kts | 146° |
| 2026-05-09 09:49 | -14.34474 | 131.41807 | 11584 ft | 315 kts | 146° |
| 2026-05-09 09:49 | -14.36273 | 131.43081 | 11273 ft | 312 kts | 146° |
| 2026-05-09 09:50 | -14.38054 | 131.44342 | 10960 ft | 310 kts | 146° |
| 2026-05-09 09:50 | -14.39817 | 131.45591 | 10644 ft | 308 kts | 146° |
| 2026-05-09 09:50 | -14.41576 | 131.46836 | 10344 ft | 306 kts | 146° |
| 2026-05-09 09:50 | -14.43323 | 131.48074 | 10045 ft | 303 kts | 146° |
| 2026-05-09 09:51 | -14.45053 | 131.49301 | 9744 ft | 301 kts | 146° |
| 2026-05-09 09:51 | -14.46791 | 131.50532 | 9265 ft | 305 kts | 146° |
| 2026-05-09 09:51 | -14.48531 | 131.51765 | 8827 ft | 302 kts | 146° |
| 2026-05-09 09:51 | -14.50254 | 131.52987 | 8384 ft | 299 kts | 145° |
| 2026-05-09 09:52 | -14.51958 | 131.54195 | 7970 ft | 295 kts | 145° |
| 2026-05-09 09:52 | -14.53640 | 131.55388 | 7563 ft | 292 kts | 145° |
| 2026-05-09 09:52 | -14.55306 | 131.56570 | 7160 ft | 289 kts | 144° |
| 2026-05-09 09:52 | -14.56931 | 131.57723 | 6770 ft | 286 kts | 144° |
| 2026-05-09 09:53 | -14.58567 | 131.58884 | 6378 ft | 283 kts | 144° |
| 2026-05-09 09:53 | -14.60186 | 131.60034 | 5958 ft | 281 kts | 144° |
| 2026-05-09 09:53 | -14.61787 | 131.61170 | 5543 ft | 278 kts | 143° |
| 2026-05-09 09:53 | -14.63372 | 131.62296 | 5135 ft | 275 kts | 143° |
| 2026-05-09 09:54 | -14.64942 | 131.63410 | 4733 ft | 272 kts | 143° |
| 2026-05-09 09:54 | -14.66494 | 131.64513 | 4313 ft | 270 kts | 143° |
| 2026-05-09 09:54 | -14.68025 | 131.65601 | 3893 ft | 267 kts | 143° |
| 2026-05-09 09:54 | -14.69545 | 131.66682 | 3479 ft | 264 kts | 143° |
| 2026-05-09 09:55 | -14.71053 | 131.67754 | 3090 ft | 260 kts | 143° |
| 2026-05-09 09:55 | -14.72510 | 131.68789 | 3006 ft | 250 kts | 143° |
| 2026-05-09 09:55 | -14.73941 | 131.69807 | 3006 ft | 250 kts | 143° |
| 2026-05-09 09:55 | -14.75380 | 131.70831 | 2980 ft | 251 kts | 143° |
| 2026-05-09 09:56 | -14.76815 | 131.71852 | 2979 ft | 250 kts | 143° |
| 2026-05-09 09:56 | -14.78240 | 131.72866 | 2971 ft | 247 kts | 143° |
| 2026-05-09 09:56 | -14.79627 | 131.73853 | 2955 ft | 236 kts | 144° |
| 2026-05-09 09:56 | -14.80928 | 131.74776 | 2953 ft | 223 kts | 144° |
| 2026-05-09 09:57 | -14.82143 | 131.75739 | 2966 ft | 218 kts | 130° |
| 2026-05-09 09:57 | -14.83006 | 131.77013 | 2990 ft | 217 kts | 118° |
| 2026-05-09 09:57 | -14.83714 | 131.78403 | 2996 ft | 220 kts | 117° |
| 2026-05-09 09:57 | -14.84417 | 131.79816 | 2980 ft | 222 kts | 117° |
| 2026-05-09 09:58 | -14.85125 | 131.81233 | 2996 ft | 223 kts | 117° |
| 2026-05-09 09:58 | -14.85839 | 131.82652 | 2975 ft | 223 kts | 117° |
| 2026-05-09 09:58 | -14.86545 | 131.84068 | 2993 ft | 221 kts | 114° |
| 2026-05-09 09:58 | -14.86731 | 131.85614 | 2969 ft | 221 kts | 75° |
| 2026-05-09 09:59 | -14.85834 | 131.86888 | 2984 ft | 231 kts | 34° |
| 2026-05-09 09:59 | -14.84251 | 131.87280 | 2996 ft | 246 kts | 355° |
| 2026-05-09 09:59 | -14.82595 | 131.86807 | 3013 ft | 249 kts | 349° |
| 2026-05-09 09:59 | -14.80911 | 131.86474 | 2982 ft | 247 kts | 342° |
| 2026-05-09 10:00 | -14.79429 | 131.85560 | 2977 ft | 250 kts | 321° |
| 2026-05-09 10:00 | -14.78297 | 131.84218 | 3038 ft | 251 kts | 302° |
| 2026-05-09 10:00 | -14.77506 | 131.82595 | 3021 ft | 255 kts | 295° |
| 2026-05-09 10:00 | -14.76813 | 131.80939 | 3058 ft | 255 kts | 285° |
| 2026-05-09 10:01 | -14.76330 | 131.79158 | 3008 ft | 258 kts | 287° |
| 2026-05-09 10:01 | -14.75746 | 131.77407 | 3129 ft | 266 kts | 290° |
| 2026-05-09 10:01 | -14.75217 | 131.75551 | 3047 ft | 269 kts | 278° |
| 2026-05-09 10:01 | -14.74988 | 131.73688 | 3170 ft | 255 kts | 274° |
| 2026-05-09 10:02 | -14.74787 | 131.71864 | 3048 ft | 256 kts | 279° |
| 2026-05-09 10:02 | -14.74373 | 131.70091 | 2980 ft | 252 kts | 287° |
| 2026-05-09 10:02 | -14.73750 | 131.68411 | 2981 ft | 250 kts | 294° |
| 2026-05-09 10:02 | -14.72969 | 131.66798 | 2999 ft | 252 kts | 299° |
| 2026-05-09 10:03 | -14.72069 | 131.65225 | 2996 ft | 256 kts | 303° |
| 2026-05-09 10:03 | -14.71090 | 131.63685 | 2978 ft | 256 kts | 305° |
| 2026-05-09 10:03 | -14.70073 | 131.62188 | 2969 ft | 255 kts | 307° |
| 2026-05-09 10:03 | -14.69028 | 131.60715 | 2974 ft | 253 kts | 307° |
| 2026-05-09 10:04 | -14.67971 | 131.59260 | 2971 ft | 253 kts | 308° |
| 2026-05-09 10:04 | -14.66904 | 131.57817 | 2978 ft | 252 kts | 308° |
| 2026-05-09 10:04 | -14.65842 | 131.56395 | 2980 ft | 252 kts | 309° |
| 2026-05-09 10:04 | -14.64784 | 131.54989 | 2979 ft | 252 kts | 308° |
| 2026-05-09 10:05 | -14.63972 | 131.53375 | 2969 ft | 251 kts | 279° |
| 2026-05-09 10:05 | -14.63897 | 131.51595 | 3004 ft | 249 kts | 272° |
| 2026-05-09 10:05 | -14.63349 | 131.49938 | 2998 ft | 249 kts | 303° |
| 2026-05-09 10:05 | -14.62868 | 131.48221 | 2886 ft | 256 kts | 270° |
| 2026-05-09 10:06 | -14.63087 | 131.46446 | 2961 ft | 246 kts | 245° |
| 2026-05-09 10:06 | -14.63811 | 131.44858 | 2983 ft | 246 kts | 239° |
| 2026-05-09 10:06 | -14.64574 | 131.43258 | 2993 ft | 249 kts | 240° |
| 2026-05-09 10:06 | -14.65308 | 131.41628 | 2967 ft | 251 kts | 243° |
| 2026-05-09 10:07 | -14.66003 | 131.39968 | 2996 ft | 253 kts | 244° |
| 2026-05-09 10:07 | -14.66669 | 131.38286 | 2983 ft | 254 kts | 245° |
| 2026-05-09 10:07 | -14.67314 | 131.36587 | 2925 ft | 255 kts | 245° |
| 2026-05-09 10:07 | -14.67946 | 131.34870 | 2750 ft | 254 kts | 246° |
| 2026-05-09 10:08 | -14.68547 | 131.33197 | 2621 ft | 247 kts | 246° |
| 2026-05-09 10:08 | -14.69132 | 131.31544 | 2496 ft | 244 kts | 246° |
| 2026-05-09 10:08 | -14.69700 | 131.29926 | 2377 ft | 245 kts | 247° |
| 2026-05-09 10:08 | -14.70272 | 131.28280 | 2272 ft | 247 kts | 247° |
| 2026-05-09 10:09 | -14.70850 | 131.26612 | 2154 ft | 247 kts | 247° |
| 2026-05-09 10:09 | -14.71421 | 131.24955 | 2035 ft | 249 kts | 247° |
| 2026-05-09 10:09 | -14.71991 | 131.23297 | 1910 ft | 247 kts | 247° |
| 2026-05-09 10:09 | -14.72566 | 131.21619 | 1800 ft | 244 kts | 248° |
| 2026-05-09 10:10 | -14.73131 | 131.19970 | 1672 ft | 242 kts | 248° |
| 2026-05-09 10:10 | -14.73692 | 131.18333 | 1571 ft | 247 kts | 248° |
| 2026-05-09 10:10 | -14.74261 | 131.16668 | 1504 ft | 243 kts | 248° |
| 2026-05-09 10:10 | -14.74817 | 131.15039 | 1484 ft | 237 kts | 249° |
| 2026-05-09 10:11 | -14.75358 | 131.13451 | 1472 ft | 233 kts | 249° |
| 2026-05-09 10:11 | -14.75899 | 131.11867 | 1496 ft | 236 kts | 248° |
| 2026-05-09 10:11 | -14.76450 | 131.10252 | 1507 ft | 240 kts | 248° |
| 2026-05-09 10:11 | -14.77008 | 131.08618 | 1500 ft | 241 kts | 248° |
| 2026-05-09 10:12 | -14.77562 | 131.06991 | 1485 ft | 240 kts | 249° |
| 2026-05-09 10:12 | -14.78112 | 131.05376 | 1491 ft | 237 kts | 249° |
| 2026-05-09 10:12 | -14.78659 | 131.03769 | 1492 ft | 236 kts | 249° |
| 2026-05-09 10:12 | -14.79208 | 131.02156 | 1491 ft | 241 kts | 249° |
| 2026-05-09 10:13 | -14.79765 | 131.00522 | 1492 ft | 241 kts | 249° |
| 2026-05-09 10:13 | -14.80319 | 130.98896 | 1478 ft | 239 kts | 249° |
| 2026-05-09 10:13 | -14.80864 | 130.97289 | 1483 ft | 236 kts | 250° |
| 2026-05-09 10:13 | -14.81287 | 130.95631 | 1485 ft | 240 kts | 256° |
| 2026-05-09 10:14 | -14.81637 | 130.93932 | 1496 ft | 242 kts | 256° |
| 2026-05-09 10:14 | -14.81981 | 130.92237 | 1490 ft | 240 kts | 256° |
| 2026-05-09 10:14 | -14.82323 | 130.90570 | 1479 ft | 238 kts | 256° |
| 2026-05-09 10:14 | -14.82670 | 130.88907 | 1492 ft | 236 kts | 256° |
| 2026-05-09 10:15 | -14.83019 | 130.87252 | 1485 ft | 236 kts | 256° |
| 2026-05-09 10:15 | -14.83371 | 130.85596 | 1491 ft | 236 kts | 256° |
| 2026-05-09 10:15 | -14.83725 | 130.83936 | 1499 ft | 237 kts | 255° |
| 2026-05-09 10:15 | -14.84080 | 130.82282 | 1493 ft | 239 kts | 256° |
| 2026-05-09 10:16 | -14.84445 | 130.80583 | 1494 ft | 239 kts | 255° |
| 2026-05-09 10:16 | -14.84587 | 130.78893 | 1472 ft | 242 kts | 281° |
| 2026-05-09 10:16 | -14.83881 | 130.77341 | 1496 ft | 244 kts | 314° |
| 2026-05-09 10:16 | -14.82483 | 130.76378 | 1496 ft | 242 kts | 344° |
| 2026-05-09 10:17 | -14.80876 | 130.75883 | 1641 ft | 242 kts | 347° |
| 2026-05-09 10:17 | -14.79250 | 130.75487 | 1667 ft | 240 kts | 351° |
| 2026-05-09 10:17 | -14.77608 | 130.75123 | 1687 ft | 243 kts | 351° |
| 2026-05-09 10:17 | -14.75959 | 130.74742 | 1672 ft | 244 kts | 350° |
| 2026-05-09 10:18 | -14.74294 | 130.74354 | 1694 ft | 246 kts | 351° |
| 2026-05-09 10:18 | -14.72614 | 130.73955 | 1682 ft | 249 kts | 350° |
| 2026-05-09 10:18 | -14.70935 | 130.73564 | 1696 ft | 246 kts | 350° |
| 2026-05-09 10:18 | -14.69277 | 130.73187 | 1681 ft | 242 kts | 350° |
| 2026-05-09 10:19 | -14.67643 | 130.72817 | 1684 ft | 239 kts | 351° |
| 2026-05-09 10:19 | -14.66030 | 130.72452 | 1735 ft | 237 kts | 351° |
| 2026-05-09 10:19 | -14.64409 | 130.72375 | 1808 ft | 236 kts | 18° |
| 2026-05-09 10:19 | -14.63003 | 130.73142 | 1873 ft | 224 kts | 51° |
| 2026-05-09 10:20 | -14.62247 | 130.74478 | 1920 ft | 216 kts | 74° |
| 2026-05-09 10:20 | -14.61802 | 130.75981 | 1889 ft | 218 kts | 78° |
| 2026-05-09 10:20 | -14.61454 | 130.77502 | 1875 ft | 218 kts | 80° |
| 2026-05-09 10:20 | -14.61143 | 130.79044 | 1892 ft | 222 kts | 81° |
| 2026-05-09 10:21 | -14.60822 | 130.80621 | 1904 ft | 226 kts | 81° |
| 2026-05-09 10:21 | -14.60497 | 130.82201 | 1886 ft | 224 kts | 80° |
| 2026-05-09 10:21 | -14.60176 | 130.83763 | 1884 ft | 221 kts | 80° |
| 2026-05-09 10:21 | -14.59863 | 130.85301 | 1893 ft | 218 kts | 80° |
| 2026-05-09 10:22 | -14.59553 | 130.86832 | 1886 ft | 216 kts | 81° |
| 2026-05-09 10:22 | -14.59241 | 130.88343 | 1893 ft | 214 kts | 80° |
| 2026-05-09 10:22 | -14.58930 | 130.89826 | 1890 ft | 215 kts | 80° |
| 2026-05-09 10:22 | -14.58596 | 130.91344 | 1910 ft | 219 kts | 79° |
| 2026-05-09 10:23 | -14.58251 | 130.92888 | 1899 ft | 222 kts | 79° |
| 2026-05-09 10:23 | -14.57903 | 130.94429 | 1882 ft | 218 kts | 79° |
| 2026-05-09 10:23 | -14.57557 | 130.95945 | 1890 ft | 217 kts | 79° |
| 2026-05-09 10:23 | -14.57212 | 130.97471 | 1901 ft | 219 kts | 79° |
| 2026-05-09 10:24 | -14.56862 | 130.99018 | 1901 ft | 222 kts | 79° |
| 2026-05-09 10:24 | -14.56505 | 131.00570 | 1898 ft | 222 kts | 80° |
| 2026-05-09 10:24 | -14.56148 | 131.02114 | 1885 ft | 220 kts | 80° |
| 2026-05-09 10:24 | -14.55813 | 131.03647 | 1879 ft | 218 kts | 81° |
| 2026-05-09 10:25 | -14.55480 | 131.05162 | 1890 ft | 216 kts | 80° |
| 2026-05-09 10:25 | -14.55155 | 131.06653 | 1879 ft | 216 kts | 81° |
| 2026-05-09 10:25 | -14.54818 | 131.08181 | 1901 ft | 220 kts | 81° |
| 2026-05-09 10:25 | -14.54478 | 131.09730 | 1889 ft | 221 kts | 80° |
| 2026-05-09 10:26 | -14.54151 | 131.11276 | 1893 ft | 221 kts | 81° |
| 2026-05-09 10:26 | -14.53816 | 131.12832 | 1902 ft | 223 kts | 81° |
| 2026-05-09 10:26 | -14.53473 | 131.14398 | 1901 ft | 223 kts | 81° |
| 2026-05-09 10:26 | -14.53133 | 131.15955 | 1880 ft | 221 kts | 82° |
| 2026-05-09 10:27 | -14.53167 | 131.17481 | 1876 ft | 210 kts | 112° |
| 2026-05-09 10:27 | -14.54016 | 131.18652 | 1901 ft | 209 kts | 145° |
| 2026-05-09 10:27 | -14.55398 | 131.19175 | 1909 ft | 216 kts | 165° |
| 2026-05-09 10:27 | -14.56885 | 131.19512 | 1904 ft | 222 kts | 164° |
| 2026-05-09 10:28 | -14.58400 | 131.19880 | 1908 ft | 225 kts | 163° |
| 2026-05-09 10:28 | -14.59917 | 131.20245 | 1879 ft | 223 kts | 164° |
| 2026-05-09 10:28 | -14.61410 | 131.20582 | 1889 ft | 217 kts | 165° |
| 2026-05-09 10:28 | -14.62879 | 131.20915 | 1877 ft | 215 kts | 164° |
| 2026-05-09 10:29 | -14.64346 | 131.21244 | 1893 ft | 218 kts | 165° |
| 2026-05-09 10:29 | -14.65830 | 131.21583 | 1903 ft | 219 kts | 164° |
| 2026-05-09 10:29 | -14.67330 | 131.21922 | 1898 ft | 221 kts | 165° |
| 2026-05-09 10:29 | -14.68828 | 131.22258 | 1890 ft | 219 kts | 164° |
| 2026-05-09 10:30 | -14.70318 | 131.22590 | 1887 ft | 218 kts | 165° |
| 2026-05-09 10:30 | -14.71792 | 131.22916 | 1891 ft | 217 kts | 164° |
| 2026-05-09 10:30 | -14.73266 | 131.23243 | 1895 ft | 216 kts | 165° |
| 2026-05-09 10:30 | -14.74738 | 131.23575 | 1900 ft | 218 kts | 164° |
| 2026-05-09 10:31 | -14.76226 | 131.23907 | 1901 ft | 219 kts | 165° |
| 2026-05-09 10:31 | -14.77723 | 131.24245 | 1905 ft | 221 kts | 165° |
| 2026-05-09 10:31 | -14.79228 | 131.24585 | 1908 ft | 223 kts | 164° |
| 2026-05-09 10:31 | -14.80771 | 131.24817 | 1879 ft | 229 kts | 182° |
| 2026-05-09 10:32 | -14.82207 | 131.24115 | 1905 ft | 237 kts | 224° |
| 2026-05-09 10:32 | -14.82956 | 131.22592 | 1916 ft | 243 kts | 254° |
| 2026-05-09 10:32 | -14.83153 | 131.20853 | 1906 ft | 247 kts | 270° |
| 2026-05-09 10:32 | -14.83019 | 131.19072 | 1898 ft | 250 kts | 275° |
| 2026-05-09 10:33 | -14.82891 | 131.17893 | 1903 ft | 250 kts | 275° |
| 2026-05-09 10:33 | -14.82691 | 131.16110 | 1885 ft | 250 kts | 275° |
| 2026-05-09 10:33 | -14.82499 | 131.14328 | 1902 ft | 249 kts | 274° |
| 2026-05-09 10:33 | -14.82256 | 131.11963 | 1899 ft | 249 kts | 274° |
| 2026-05-09 10:34 | -14.82080 | 131.10185 | 1891 ft | 249 kts | 275° |
| 2026-05-09 10:34 | -14.81796 | 131.07218 | 1889 ft | 247 kts | 274° |
| 2026-05-09 10:34 | -14.81629 | 131.05455 | 1882 ft | 247 kts | 274° |
| 2026-05-09 10:35 | -14.81465 | 131.03696 | 1907 ft | 246 kts | 274° |
| 2026-05-09 10:35 | -14.81302 | 131.01942 | 1876 ft | 245 kts | 274° |
| 2026-05-09 10:35 | -14.81137 | 131.00185 | 1902 ft | 245 kts | 274° |
| 2026-05-09 10:35 | -14.80974 | 130.98439 | 1922 ft | 240 kts | 273° |
| 2026-05-09 10:36 | -14.80908 | 130.96772 | 1868 ft | 224 kts | 257° |
| 2026-05-09 10:36 | -14.81256 | 130.95285 | 1881 ft | 213 kts | 253° |
| 2026-05-09 10:36 | -14.81607 | 130.93749 | 1922 ft | 220 kts | 253° |
| 2026-05-09 10:36 | -14.81948 | 130.92201 | 1903 ft | 226 kts | 254° |
| 2026-05-09 10:37 | -14.82289 | 130.90621 | 1904 ft | 224 kts | 255° |
| 2026-05-09 10:37 | -14.82614 | 130.89050 | 1879 ft | 223 kts | 260° |
| 2026-05-09 10:37 | -14.82429 | 130.87479 | 1892 ft | 224 kts | 296° |
| 2026-05-09 10:37 | -14.81419 | 130.86252 | 1901 ft | 229 kts | 331° |
| 2026-05-09 10:38 | -14.79937 | 130.85792 | 1905 ft | 220 kts | 6° |
| 2026-05-09 10:38 | -14.78532 | 130.86241 | 1891 ft | 209 kts | 41° |
| 2026-05-09 10:38 | -14.77686 | 130.87386 | 1909 ft | 199 kts | 73° |
| 2026-05-09 10:38 | -14.77358 | 130.88772 | 1896 ft | 199 kts | 81° |
| 2026-05-09 10:39 | -14.77077 | 130.90170 | 1917 ft | 200 kts | 81° |
| 2026-05-09 10:39 | -14.76777 | 130.91589 | 1910 ft | 202 kts | 81° |
| 2026-05-09 10:39 | -14.76467 | 130.93010 | 1901 ft | 202 kts | 80° |
| 2026-05-09 10:39 | -14.76164 | 130.94404 | 1875 ft | 196 kts | 80° |
| 2026-05-09 10:40 | -14.75866 | 130.95780 | 1909 ft | 198 kts | 80° |
| 2026-05-09 10:40 | -14.75396 | 130.97117 | 1873 ft | 203 kts | 56° |
| 2026-05-09 10:40 | -14.74255 | 130.97963 | 1897 ft | 209 kts | 19° |
| 2026-05-09 10:40 | -14.72810 | 130.97959 | 1914 ft | 220 kts | 343° |
| 2026-05-09 10:41 | -14.71516 | 130.97067 | 1889 ft | 231 kts | 309° |
| 2026-05-09 10:41 | -14.70886 | 130.95576 | 1899 ft | 228 kts | 273° |
| 2026-05-09 10:41 | -14.71010 | 130.93964 | 1916 ft | 225 kts | 255° |
| 2026-05-09 10:41 | -14.71351 | 130.92384 | 1901 ft | 225 kts | 255° |
| 2026-05-09 10:42 | -14.71701 | 130.90807 | 1890 ft | 225 kts | 254° |
| 2026-05-09 10:42 | -14.72040 | 130.89249 | 1911 ft | 217 kts | 254° |
| 2026-05-09 10:42 | -14.72355 | 130.87765 | 1879 ft | 205 kts | 254° |
| 2026-05-09 10:42 | -14.72652 | 130.86309 | 1908 ft | 209 kts | 258° |
| 2026-05-09 10:43 | -14.72529 | 130.84820 | 1893 ft | 210 kts | 294° |
| 2026-05-09 10:43 | -14.71606 | 130.83703 | 1894 ft | 205 kts | 333° |
| 2026-05-09 10:43 | -14.70280 | 130.83381 | 1898 ft | 193 kts | 13° |
| 2026-05-09 10:43 | -14.69126 | 130.83945 | 1908 ft | 184 kts | 53° |
| 2026-05-09 10:44 | -14.68572 | 130.85098 | 1925 ft | 181 kts | 81° |
| 2026-05-09 10:44 | -14.68328 | 130.86376 | 1907 ft | 180 kts | 81° |
| 2026-05-09 10:44 | -14.68068 | 130.87629 | 1883 ft | 177 kts | 80° |
| 2026-05-09 10:44 | -14.67812 | 130.88861 | 1877 ft | 175 kts | 81° |
| 2026-05-09 10:45 | -14.67549 | 130.90090 | 1908 ft | 176 kts | 81° |
| 2026-05-09 10:46 | -14.66285 | 130.95039 | 1877 ft | 185 kts | 53° |
| 2026-05-09 10:46 | -14.65188 | 130.95732 | 1895 ft | 194 kts | 14° |
| 2026-05-09 10:46 | -14.63848 | 130.95556 | 1909 ft | 201 kts | 335° |
| 2026-05-09 10:46 | -14.62857 | 130.94555 | 1897 ft | 203 kts | 295° |
| 2026-05-09 10:47 | -14.62631 | 130.93138 | 1925 ft | 203 kts | 262° |
| 2026-05-09 10:47 | -14.62845 | 130.91697 | 1910 ft | 207 kts | 254° |
| 2026-05-09 10:47 | -14.63156 | 130.90254 | 1898 ft | 205 kts | 254° |
| 2026-05-09 10:47 | -14.63459 | 130.88825 | 1883 ft | 202 kts | 255° |
| 2026-05-09 10:48 | -14.63767 | 130.87418 | 1903 ft | 200 kts | 254° |
| 2026-05-09 10:48 | -14.64069 | 130.86022 | 1889 ft | 198 kts | 254° |
| 2026-05-09 10:48 | -14.64370 | 130.84625 | 1913 ft | 202 kts | 254° |
| 2026-05-09 10:48 | -14.64923 | 130.83322 | 1877 ft | 195 kts | 221° |
| 2026-05-09 10:49 | -14.66024 | 130.82680 | 1900 ft | 185 kts | 182° |
| 2026-05-09 10:49 | -14.67231 | 130.82910 | 1917 ft | 178 kts | 143° |
| 2026-05-09 10:49 | -14.67972 | 130.83896 | 1903 ft | 176 kts | 105° |
| 2026-05-09 10:49 | -14.67926 | 130.85140 | 1911 ft | 175 kts | 80° |
| 2026-05-09 10:50 | -14.67658 | 130.86366 | 1901 ft | 175 kts | 80° |